createdAt,value
2022-10-30T00:01:23.442Z,17.90
2022-10-30T00:03:51.825Z,22.95
2022-10-30T00:06:21.600Z,17.95
2022-10-30T00:08:49.820Z,18.58
2022-10-30T00:11:18.264Z,19.98
2022-10-30T00:13:46.855Z,18.25
2022-10-30T00:16:15.279Z,21.67
2022-10-30T00:18:43.583Z,20.17
2022-10-30T00:21:14.797Z,19.13
2022-10-30T00:23:49.610Z,23.27
2022-10-30T00:26:18.564Z,24.15
2022-10-30T00:28:50.980Z,18.52
2022-10-30T00:31:19.519Z,17.48
2022-10-30T00:33:51.813Z,20.75
2022-10-30T00:36:20.569Z,17.33
2022-10-30T00:38:51.632Z,20.75
2022-10-30T00:41:22.427Z,17.25
2022-10-30T00:43:51.156Z,15.18
2022-10-30T00:46:27.403Z,20.95
2022-10-30T00:48:59.665Z,18.73
2022-10-30T00:51:30.612Z,21.55
2022-10-30T00:54:02.756Z,21.25
2022-10-30T00:56:31.655Z,18.23
2022-10-30T00:59:03.192Z,23.77
2022-10-30T01:01:38.307Z,17.90
2022-10-30T01:04:08.045Z,23.60
2022-10-30T01:06:43.654Z,18.60
2022-10-30T01:09:13.232Z,22.40
2022-10-30T01:11:41.694Z,20.70
2022-10-30T01:14:13.397Z,19.38
2022-10-30T01:17:08.596Z,21.58
2022-10-30T01:19:45.613Z,18.73
2022-10-30T01:22:30.819Z,22.45
2022-10-30T01:25:18.271Z,19.80
2022-10-30T01:27:56.529Z,20.70
2022-10-30T01:30:44.895Z,18.42
2022-10-30T01:33:29.857Z,23.42
2022-10-30T01:36:06.935Z,22.17
2022-10-30T01:38:42.906Z,21.38
2022-10-30T01:41:12.612Z,23.40
2022-10-30T01:43:41.963Z,21.20
2022-10-30T01:46:35.540Z,23.13
2022-10-30T01:49:36.170Z,24.52
2022-10-30T01:52:14.477Z,17.65
2022-10-30T01:54:50.952Z,21.92
2022-10-30T01:57:39.877Z,19.92
2022-10-30T02:00:11.311Z,22.95
2022-10-30T02:02:39.905Z,20.25
2022-10-30T02:05:10.924Z,24.48
2022-10-30T02:07:39.297Z,20.05
2022-10-30T02:10:08.604Z,21.17
2022-10-30T02:12:39.482Z,22.27
2022-10-30T02:15:08.963Z,19.00
2022-10-30T02:17:37.615Z,23.92
2022-10-30T02:20:07.413Z,19.90
2022-10-30T02:22:37.039Z,25.20
2022-10-30T02:25:07.407Z,20.65
2022-10-30T02:27:35.697Z,20.45
2022-10-30T02:30:04.135Z,23.90
2022-10-30T02:32:32.500Z,23.92
2022-10-30T02:35:00.823Z,21.75
2022-10-30T02:37:29.168Z,22.20
2022-10-30T02:39:58.708Z,20.42
2022-10-30T02:42:26.957Z,23.38
2022-10-30T02:44:55.097Z,20.88
2022-10-30T02:47:23.472Z,22.52
2022-10-30T02:49:51.718Z,21.65
2022-10-30T02:52:19.909Z,22.52
2022-10-30T02:54:49.119Z,18.63
2022-10-30T02:57:18.702Z,22.10
2022-10-30T02:59:46.849Z,22.65
2022-10-30T03:02:15.344Z,21.60
2022-10-30T03:04:43.622Z,22.15
2022-10-30T03:07:11.897Z,27.48
2022-10-30T03:09:40.236Z,18.73
2022-10-30T03:12:08.907Z,26.15
2022-10-30T03:14:38.635Z,19.42
2022-10-30T03:17:07.081Z,19.35
2022-10-30T03:19:35.630Z,22.02
2022-10-30T03:22:04.263Z,23.08
2022-10-30T03:24:32.483Z,20.40
2022-10-30T03:27:03.315Z,22.23
2022-10-30T03:29:31.658Z,16.95
2022-10-30T03:32:01.418Z,23.77
2022-10-30T03:34:29.589Z,24.40
2022-10-30T03:36:57.765Z,21.75
2022-10-30T03:39:26.039Z,21.83
2022-10-30T03:41:54.239Z,22.25
2022-10-30T03:44:22.652Z,23.80
2022-10-30T03:46:50.867Z,25.13
2022-10-30T03:49:20.466Z,22.52
2022-10-30T03:51:48.721Z,27.60
2022-10-30T03:54:16.965Z,28.70
2022-10-30T03:56:46.408Z,28.25
2022-10-30T03:59:14.557Z,22.23
2022-10-30T04:01:43.269Z,23.95
2022-10-30T04:04:11.585Z,21.95
2022-10-30T04:06:41.411Z,26.13
2022-10-30T04:09:09.768Z,24.00
2022-10-30T04:11:37.913Z,27.13
2022-10-30T04:14:06.284Z,23.65
2022-10-30T04:16:34.463Z,24.13
2022-10-30T04:19:02.673Z,23.60
2022-10-30T04:21:31.051Z,22.73
2022-10-30T04:24:00.585Z,24.05
2022-10-30T04:26:29.387Z,26.45
2022-10-30T04:28:57.736Z,28.23
2022-10-30T04:31:25.851Z,30.45
2022-10-30T04:33:54.027Z,25.10
2022-10-30T04:36:30.317Z,26.23
2022-10-30T04:38:59.862Z,26.67
2022-10-30T04:41:28.098Z,26.58
2022-10-30T04:43:56.253Z,28.77
2022-10-30T04:46:24.560Z,24.80
2022-10-30T04:48:53.416Z,27.00
2022-10-30T04:51:21.726Z,25.23
2022-10-30T04:53:51.264Z,29.40
2022-10-30T04:56:20.890Z,27.67
2022-10-30T04:58:49.077Z,24.20
2022-10-30T05:01:17.424Z,25.95
2022-10-30T05:03:49.278Z,25.38
2022-10-30T05:06:24.137Z,26.63
2022-10-30T05:08:52.717Z,25.10
2022-10-30T05:11:22.613Z,28.95
2022-10-30T05:13:50.841Z,29.65
2022-10-30T05:16:19.394Z,26.90
2022-10-30T05:18:47.577Z,26.33
2022-10-30T05:21:15.803Z,28.75
2022-10-30T05:23:44.008Z,28.85
2022-10-30T05:26:12.467Z,32.25
2022-10-30T05:28:42.618Z,24.88
2022-10-30T05:31:10.842Z,28.33
2022-10-30T05:33:38.994Z,28.75
2022-10-30T05:36:07.916Z,28.90
2022-10-30T05:38:36.132Z,25.05
2022-10-30T05:41:04.362Z,30.98
2022-10-30T05:43:32.585Z,29.88
2022-10-30T05:46:02.137Z,33.35
2022-10-30T05:48:30.314Z,28.67
2022-10-30T05:50:58.627Z,29.38
2022-10-30T05:53:26.967Z,26.75
2022-10-30T05:55:58.629Z,26.65
2022-10-30T05:58:27.461Z,29.65
2022-10-30T06:00:55.668Z,29.05
2022-10-30T06:03:25.296Z,33.13
2022-10-30T06:05:53.558Z,29.13
2022-10-30T06:08:21.758Z,31.17
2022-10-30T06:10:49.941Z,31.15
2022-10-30T06:13:18.164Z,35.88
2022-10-30T06:15:53.532Z,29.52
2022-10-30T06:18:25.948Z,33.00
2022-10-30T06:21:00.195Z,30.65
2022-10-30T06:23:32.120Z,35.97
2022-10-30T06:26:02.012Z,32.40
2022-10-30T06:28:32.395Z,28.90
2022-10-30T06:31:10.139Z,31.88
2022-10-30T06:33:44.753Z,32.90
2022-10-30T06:36:17.911Z,28.92
2022-10-30T06:38:47.182Z,27.42
2022-10-30T06:41:30.634Z,28.02
2022-10-30T06:44:02.936Z,31.58
2022-10-30T06:46:37.948Z,30.05
2022-10-30T06:49:08.057Z,29.77
2022-10-30T06:51:40.761Z,28.15
2022-10-30T06:54:09.898Z,28.95
2022-10-30T06:56:39.744Z,32.58
2022-10-30T06:59:13.379Z,28.13
2022-10-30T07:01:47.650Z,30.27
2022-10-30T07:04:20.438Z,30.15
2022-10-30T07:06:52.950Z,31.27
2022-10-30T07:09:21.752Z,29.55
2022-10-30T07:11:56.591Z,32.97
2022-10-30T07:14:25.700Z,26.58
2022-10-30T07:16:56.952Z,29.50
2022-10-30T07:19:28.744Z,29.02
2022-10-30T07:21:59.186Z,26.00
2022-10-30T07:24:29.137Z,31.23
2022-10-30T07:27:09.237Z,31.33
2022-10-30T07:29:39.490Z,30.20
2022-10-30T07:32:18.472Z,28.42
2022-10-30T07:34:50.386Z,30.58
2022-10-30T07:37:25.643Z,32.10
2022-10-30T07:40:10.003Z,30.75
2022-10-30T07:45:52.685Z,26.80
2022-10-30T07:48:35.229Z,29.67
2022-10-30T07:54:20.653Z,25.90
2022-10-30T07:56:55.492Z,22.40
2022-10-30T07:59:34.463Z,27.77
2022-10-30T08:02:05.568Z,30.40
2022-10-30T08:04:43.959Z,23.35
2022-10-30T08:07:16.970Z,30.77
2022-10-30T08:09:45.786Z,27.13
2022-10-30T08:12:15.745Z,23.42
2022-10-30T08:14:54.292Z,22.25
2022-10-30T08:17:31.838Z,27.30
2022-10-30T08:20:01.341Z,24.67
2022-10-30T08:22:33.948Z,25.73
2022-10-30T08:25:09.886Z,25.30
2022-10-30T08:27:42.242Z,23.85
2022-10-30T08:30:15.338Z,26.15
2022-10-30T08:32:58.507Z,23.55
2022-10-30T08:38:46.095Z,27.25
2022-10-30T08:41:16.775Z,20.42
2022-10-30T08:43:48.441Z,21.45
2022-10-30T08:46:18.091Z,21.95
2022-10-30T08:48:48.799Z,21.70
2022-10-30T08:51:17.739Z,23.92
2022-10-30T08:53:51.795Z,29.02
2022-10-30T08:56:30.768Z,24.65
2022-10-30T08:58:59.495Z,23.08
2022-10-30T09:10:43.271Z,23.73
2022-10-30T09:13:32.446Z,23.45
2022-10-30T09:16:27.555Z,25.08
2022-10-30T09:19:01.484Z,21.60
2022-10-30T09:22:19.097Z,23.55
2022-10-30T09:24:53.003Z,25.27
2022-10-30T09:27:31.634Z,25.70
2022-10-30T09:54:34.289Z,24.25
2022-10-30T10:19:22.761Z,22.55
2022-10-30T10:45:23.481Z,28.80
2022-10-30T10:48:49.262Z,23.08
2022-10-30T10:51:23.300Z,22.45
2022-10-30T10:54:00.784Z,21.05
2022-10-30T10:56:37.630Z,21.95
2022-10-30T10:59:17.169Z,23.77
2022-10-30T11:01:55.208Z,22.83
2022-10-30T11:04:33.237Z,20.80
2022-10-30T11:22:50.935Z,19.23
2022-10-30T11:25:33.960Z,20.90
2022-10-30T11:29:19.875Z,25.95
2022-10-30T14:28:22.729Z,15.15
2022-10-30T15:03:29.717Z,12.32
2022-10-30T15:20:09.216Z,10.52
2022-10-30T15:22:49.331Z,13.60
2022-10-30T15:28:54.438Z,11.50
2022-10-30T16:14:17.809Z,12.68
2022-10-30T16:16:51.386Z,12.80
2022-10-30T16:19:44.162Z,12.30
2022-10-30T16:43:43.952Z,10.88
2022-10-30T16:46:55.119Z,14.52
2022-10-30T16:49:30.127Z,13.68
2022-10-30T16:58:35.465Z,14.10
2022-10-30T17:01:55.134Z,12.35
2022-10-30T17:04:58.191Z,14.05
2022-10-30T17:10:37.716Z,12.70
2022-10-30T17:18:13.717Z,13.85
2022-10-30T19:29:01.865Z,13.32
2022-10-30T19:32:07.784Z,11.57
2022-10-30T19:34:50.647Z,12.40
2022-10-30T20:50:01.432Z,16.17
2022-10-30T20:56:06.404Z,11.57
2022-10-30T21:21:07.750Z,9.98
2022-10-30T21:36:26.065Z,9.88
2022-10-30T21:49:39.577Z,10.02
2022-10-30T21:52:23.550Z,10.18
2022-10-30T21:55:02.752Z,11.88
2022-10-30T21:57:44.055Z,10.40
2022-10-30T22:00:20.886Z,9.30
2022-10-30T22:03:18.182Z,10.45
2022-10-30T22:15:32.860Z,9.32
2022-10-30T22:18:09.608Z,9.73
2022-10-30T22:20:47.786Z,11.20
2022-10-30T22:23:23.591Z,9.50
2022-10-30T22:26:00.293Z,10.10
2022-10-30T22:28:45.783Z,10.38
2022-10-30T22:31:23.069Z,10.57
2022-10-30T22:34:04.183Z,9.55
2022-10-30T22:36:36.992Z,10.60
2022-10-30T22:39:33.359Z,9.95
2022-10-30T22:42:14.199Z,8.05
2022-10-30T22:44:50.064Z,10.95
2022-10-30T22:48:03.123Z,9.75
2022-10-30T22:53:39.165Z,8.80
2022-10-30T22:56:47.929Z,9.93
2022-10-30T22:59:20.258Z,12.48
2022-10-30T23:01:52.763Z,12.43
2022-10-30T23:04:27.120Z,10.60
2022-10-30T23:07:02.341Z,11.98
2022-10-30T23:09:48.662Z,10.50
2022-10-30T23:12:30.731Z,12.02
2022-10-30T23:15:02.009Z,10.07
2022-10-30T23:17:37.351Z,12.43
2022-10-30T23:20:14.679Z,10.95
2022-10-30T23:23:00.427Z,12.65
2022-10-30T23:25:36.913Z,12.70
2022-10-30T23:31:37.917Z,13.75
2022-10-30T23:34:22.484Z,13.98
2022-10-30T23:37:03.613Z,13.55
2022-10-30T23:39:35.419Z,22.70
2022-10-30T23:42:15.520Z,34.75
2022-10-30T23:44:55.092Z,43.35
2022-10-30T23:47:47.480Z,44.33
2022-10-30T23:50:25.292Z,39.20
2022-10-30T23:53:00.641Z,30.30
2022-10-30T23:55:42.672Z,26.98
2022-10-30T23:58:21.766Z,25.27
